ENNA METAR and TAF weather

Enter ICAO airport designator
Station Type Date Time Source
ENNA METAR 2022/09/26 08:20 UTC NOAA

ENNA 260820Z 18017KT 9999 FEW036 BKN055 07/01 Q1011 RMK WIND 1800FT 17031KT


Station Type Date Time Source
ENNA Decoded METAR 2022/09/26 08:20 UTC NOAA

Banak, Norway (ENNA) 70-04N 024-59E 8M
Sep 26, 2022 - 04:20 AM EDT / 2022.09.26 0820 UTC
Wind: from the S (180 degrees) at 20 MPH (17 KT):0
Visibility: greater than 7 mile(s):0
Sky conditions: mostly cloudy
Temperature: 44 F (7 C)
Dew Point: 33 F (1 C)
Relative Humidity: 65%
Pressure (altimeter): 29.85 in. Hg (1011 hPa)
ob: ENNA 260820Z 18017KT 9999 FEW036 BKN055 07/01 Q1011 RMK WIND 1800FT 17031KT
cycle: 8

Station Type Date Time Source
ENNA TAF 2022/09/26 06:57 UTC NOAA

TAF TAF ENNA 260500Z 2606/2706 18009KT 9999 SCT035 PROB30
TEMPO 2621/2702 BKN014

Example: see airport list